Etusivu
METAR-TAF:

METAR-TAF

Lentoasemat :

Marion Municipal Airport

Marion, Ohio, Yhdysvallat

Leveyspiiri: 40-37-00N, Pituuspiiri: 083-04-06W, korkeus merenpinnasta: 303 m

Tämänhetkinen sää

Tämä raportti tehtiin 1 tunti ja 9 minuuttia sitten, kello 02.53 UTC
Tuuli 9 kn luoteesta
Lämpötila 12°C
Kosteus 71%
Ilmanpaine 1017 hPa
Näkyvyys: 12.9 km
Pilvistä 6500 ft:n korkeudessa

METAR: KMNN 050253Z AUTO 32009KT 8SM OVC065 12/07 A3004 RMK AO2 SLP174 T01170072 51017

Aika: 00:02 (04:02 UTC)


TAF: puuttuu

Säähavainnot ja -ennusteet yli 4000 lentoasemalta (METAR- ja TAF-raportit).

Käytössä olevat sääasemat on merkitty karttaan keltaisilla ja punaisilla pisteillä.

Aseta hiiri pisteen päälle nähdäksesi sääaseman nimen.

Klikkaa sitten nähdäksesi säähavainnot ja -ennusteet.

Kartan vaihtaminen: klikkaa mustalla rastilla varustettuja vihreitä pisteitä, niin voit zoomata sisään; viivalla varustettua vihreää pistettä, niin voit zoomata ulos tai vihreitä nuolia, niin pääset viereisille kartoille.


METAR-TAF: